createdAt,value
2019-05-03T00:02:26.160Z,97382.21
2019-05-03T00:05:12.603Z,97380.39
2019-05-03T00:07:44.773Z,97379.30
2019-05-03T00:10:16.830Z,97373.39
2019-05-03T00:12:48.800Z,97374.27
2019-05-03T00:15:34.390Z,97367.45
2019-05-03T00:18:06.324Z,97377.23
2019-05-03T00:20:38.304Z,97369.69
2019-05-03T00:23:12.011Z,97366.77
2019-05-03T00:25:44.178Z,97369.14
2019-05-03T00:28:16.116Z,97366.95
2019-05-03T00:30:48.095Z,97363.56
2019-05-03T00:33:20.050Z,97363.37
2019-05-03T00:36:11.727Z,97368.95
2019-05-03T00:38:43.652Z,97366.67
2019-05-03T00:41:15.602Z,97361.47
2019-05-03T00:43:47.544Z,97364.66
2019-05-03T00:46:19.538Z,97364.66
2019-05-03T00:48:52.481Z,97365.58
2019-05-03T00:51:24.545Z,97363.29
2019-05-03T00:53:56.494Z,97362.83
2019-05-03T00:56:28.454Z,97359.27
2019-05-03T00:59:02.165Z,97359.91
2019-05-03T01:01:34.253Z,97350.77
2019-05-03T01:04:06.186Z,97350.77
2019-05-03T01:06:38.173Z,97355.13
2019-05-03T01:09:16.532Z,97355.13
2019-05-03T01:11:48.490Z,97353.84
2019-05-03T01:14:22.228Z,97353.56
2019-05-03T01:16:54.330Z,97350.41
2019-05-03T01:19:26.261Z,97356.67
2019-05-03T01:21:58.250Z,97350.73
2019-05-03T01:24:32.127Z,97350.60
2019-05-03T01:27:04.169Z,97346.35
2019-05-03T01:29:36.111Z,97349.59
2019-05-03T01:32:08.084Z,97344.97
2019-05-03T01:34:41.654Z,97353.02
2019-05-03T01:37:13.738Z,97355.85
2019-05-03T01:39:45.778Z,97347.86
2019-05-03T01:42:17.736Z,97357.77
2019-05-03T01:44:49.677Z,97359.14
2019-05-03T01:47:29.462Z,97358.55
2019-05-03T01:50:15.644Z,97361.52
2019-05-03T01:52:48.642Z,97361.02
2019-05-03T01:55:22.696Z,97358.73
2019-05-03T01:57:54.691Z,97355.72
2019-05-03T02:00:28.556Z,97355.26
2019-05-03T02:03:06.629Z,97354.90
2019-05-03T02:05:48.290Z,97353.11
2019-05-03T02:08:22.032Z,97355.99
2019-05-03T02:10:54.101Z,97351.50
2019-05-03T02:13:26.070Z,97360.33
2019-05-03T02:15:58.004Z,97357.49
2019-05-03T02:18:31.852Z,97355.48
2019-05-03T02:21:03.862Z,97357.77
2019-05-03T02:23:35.888Z,97351.28
2019-05-03T02:26:07.837Z,97355.62
2019-05-03T02:28:42.015Z,97356.53
2019-05-03T02:31:13.950Z,97354.80
2019-05-03T02:33:45.911Z,97355.26
2019-05-03T02:36:17.884Z,97354.33
2019-05-03T02:38:49.842Z,97354.33
2019-05-03T02:41:22.687Z,97357.98
2019-05-03T02:43:56.077Z,97353.38
2019-05-03T02:46:50.644Z,97356.13
2019-05-03T02:49:35.459Z,97353.56
2019-05-03T02:52:09.283Z,97361.44
2019-05-03T02:54:41.263Z,97360.51
2019-05-03T02:57:15.030Z,97363.07
2019-05-03T02:59:49.838Z,97362.38
2019-05-03T03:02:20.905Z,97365.53
2019-05-03T03:04:52.876Z,97362.89
2019-05-03T03:07:26.103Z,97364.76
2019-05-03T03:09:59.230Z,97360.18
2019-05-03T03:12:35.395Z,97360.46
2019-05-03T03:15:06.456Z,97363.34
2019-05-03T03:17:40.165Z,97364.76
2019-05-03T03:20:12.761Z,97364.48
2019-05-03T03:25:36.152Z,97365.95
2019-05-03T03:28:09.367Z,97368.69
2019-05-03T03:31:29.091Z,97371.79
2019-05-03T03:34:08.309Z,97372.25
2019-05-03T03:36:59.637Z,97364.90
2019-05-03T03:39:21.835Z,97372.11
2019-05-03T03:41:55.763Z,97372.84
2019-05-03T03:44:28.060Z,97369.83
2019-05-03T03:47:00.073Z,97377.17
2019-05-03T03:49:35.433Z,97381.88
2019-05-03T03:52:07.237Z,97378.45
2019-05-03T03:54:40.973Z,97380.84
2019-05-03T03:57:15.972Z,97380.38
2019-05-03T03:59:48.394Z,97383.66
2019-05-03T04:02:20.380Z,97386.31
2019-05-03T04:04:52.317Z,97387.18
2019-05-03T04:07:26.157Z,97391.28
2019-05-03T04:09:58.325Z,97392.47
2019-05-03T04:12:30.281Z,97397.03
2019-05-03T04:15:28.604Z,97402.09
2019-05-03T04:18:32.515Z,97403.02
2019-05-03T04:21:05.566Z,97404.56
2019-05-03T04:23:37.755Z,97408.00
2019-05-03T04:26:09.708Z,97411.45
2019-05-03T04:28:41.725Z,97417.09
2019-05-03T04:31:15.224Z,97409.83
2019-05-03T04:33:47.518Z,97410.64
2019-05-03T04:36:19.451Z,97421.88
2019-05-03T04:38:51.439Z,97420.78
2019-05-03T04:41:26.621Z,97420.41
2019-05-03T04:43:57.236Z,97426.19
2019-05-03T04:46:29.207Z,97418.37
2019-05-03T04:49:01.171Z,97422.00
2019-05-03T04:51:35.067Z,97421.45
2019-05-03T04:54:25.473Z,97428.59
2019-05-03T04:56:57.954Z,97428.16
2019-05-03T04:59:30.026Z,97431.73
2019-05-03T05:02:01.968Z,97435.75
2019-05-03T05:04:35.697Z,97436.12
2019-05-03T05:07:07.811Z,97439.18
2019-05-03T05:09:39.742Z,97438.83
2019-05-03T05:12:11.685Z,97440.22
2019-05-03T05:14:45.732Z,97446.17
2019-05-03T05:17:26.854Z,97447.77
2019-05-03T05:20:08.157Z,97440.11
2019-05-03T05:22:40.127Z,97444.84
2019-05-03T05:25:15.972Z,97450.45
2019-05-03T05:28:10.859Z,97451.47
2019-05-03T05:30:44.455Z,97448.48
2019-05-03T05:33:19.841Z,97451.56
2019-05-03T05:35:51.906Z,97457.17
2019-05-03T05:38:25.588Z,97462.75
2019-05-03T05:40:57.778Z,97462.75
2019-05-03T05:43:29.714Z,97463.25
2019-05-03T05:46:01.665Z,97463.25
2019-05-03T05:48:45.315Z,97456.81
2019-05-03T05:51:17.282Z,97468.93
2019-05-03T05:53:49.251Z,97468.93
2019-05-03T05:56:46.884Z,97472.16
2019-05-03T05:59:27.205Z,97479.16
2019-05-03T06:02:04.706Z,97486.84
2019-05-03T06:04:36.390Z,97487.44
2019-05-03T06:07:44.345Z,97487.86
2019-05-03T06:10:31.624Z,97487.86
2019-05-03T06:13:16.999Z,97485.80
2019-05-03T06:15:54.801Z,97496.09
2019-05-03T06:18:32.713Z,97494.75
2019-05-03T06:21:12.363Z,97496.45
2019-05-03T06:23:50.768Z,97509.52
2019-05-03T06:26:48.606Z,97510.10
2019-05-03T06:29:20.553Z,97513.36
2019-05-03T06:32:00.561Z,97521.94
2019-05-03T06:34:32.517Z,97521.94
2019-05-03T06:37:08.492Z,97524.97
2019-05-03T06:39:40.488Z,97538.05
2019-05-03T06:42:17.494Z,97538.05
2019-05-03T06:44:46.289Z,97538.05
2019-05-03T06:47:18.235Z,97540.09
2019-05-03T06:49:50.212Z,97543.66
2019-05-03T06:52:27.635Z,97543.66
2019-05-03T06:55:00.300Z,97545.66
2019-05-03T06:57:29.995Z,97545.88
2019-05-03T07:00:20.580Z,97551.88
2019-05-03T07:03:17.912Z,97549.01
2019-05-03T07:06:08.075Z,97555.56
2019-05-03T07:08:52.253Z,97557.16
2019-05-03T07:11:24.777Z,97556.27
2019-05-03T07:13:56.880Z,97557.23
2019-05-03T07:16:28.815Z,97565.11
2019-05-03T07:19:00.777Z,97565.56
2019-05-03T07:21:32.710Z,97572.86
2019-05-03T07:24:05.449Z,97575.33
2019-05-03T07:26:37.460Z,97572.63
2019-05-03T07:29:09.446Z,97579.17
2019-05-03T07:31:41.456Z,97583.81
2019-05-03T07:34:15.425Z,97581.89
2019-05-03T07:36:47.263Z,97587.31
2019-05-03T07:39:19.230Z,97584.45
2019-05-03T07:41:51.185Z,97587.92
2019-05-03T07:44:25.331Z,97588.48
2019-05-03T07:46:57.237Z,97587.62
2019-05-03T07:49:29.178Z,97594.22
2019-05-03T07:52:01.147Z,97592.39
2019-05-03T07:54:34.875Z,97594.88
2019-05-03T07:57:26.742Z,97596.56
2019-05-03T07:59:58.702Z,97600.47
2019-05-03T08:02:30.650Z,97597.53
2019-05-03T08:05:02.873Z,97598.22
2019-05-03T08:07:35.641Z,97584.87
2019-05-03T08:10:07.704Z,97592.73
2019-05-03T08:12:39.658Z,97594.38
2019-05-03T08:15:11.994Z,97596.00
2019-05-03T08:17:44.991Z,97591.20
2019-05-03T08:20:17.031Z,97599.90
2019-05-03T08:22:49.204Z,97604.45
2019-05-03T08:25:21.154Z,97606.86
2019-05-03T08:27:54.841Z,97599.19
2019-05-03T08:30:35.435Z,97605.83
2019-05-03T08:33:15.737Z,97608.13
2019-05-03T08:35:48.303Z,97611.91
2019-05-03T08:38:20.256Z,97605.36
2019-05-03T08:40:54.773Z,97610.23
2019-05-03T08:43:26.909Z,97606.70
2019-05-03T08:45:58.872Z,97602.08
2019-05-03T08:48:30.881Z,97601.30
2019-05-03T08:51:04.519Z,97589.95
2019-05-03T08:53:36.769Z,97596.46
2019-05-03T08:56:08.806Z,97599.64
2019-05-03T08:58:40.799Z,97599.64
2019-05-03T09:01:14.734Z,97606.47
2019-05-03T09:03:46.674Z,97604.91
2019-05-03T09:06:18.687Z,97603.13
2019-05-03T09:08:54.104Z,97601.00
2019-05-03T09:11:31.833Z,97602.22
2019-05-03T09:14:01.325Z,97607.41
2019-05-03T09:16:35.445Z,97606.40
2019-05-03T09:19:07.196Z,97604.91
2019-05-03T09:21:39.218Z,97599.77
2019-05-03T09:24:11.216Z,97601.06
2019-05-03T09:26:44.900Z,97597.47
2019-05-03T09:29:17.088Z,97593.02
2019-05-03T09:31:49.079Z,97595.62
2019-05-03T09:34:21.053Z,97595.03
2019-05-03T09:36:55.206Z,97592.00
2019-05-03T09:39:26.930Z,97590.17
2019-05-03T09:41:58.912Z,97584.92
2019-05-03T09:44:30.910Z,97591.85
2019-05-03T09:47:02.930Z,97590.98
2019-05-03T09:49:35.007Z,97590.57
2019-05-03T09:52:08.437Z,97584.64
2019-05-03T09:54:46.315Z,97582.42
2019-05-03T09:57:18.284Z,97581.19
2019-05-03T09:59:57.082Z,97575.11
2019-05-03T10:02:24.664Z,97577.09
2019-05-03T10:04:56.804Z,97577.24
2019-05-03T10:07:28.796Z,97573.82
2019-05-03T10:10:00.759Z,97580.09
2019-05-03T10:12:32.746Z,97576.94
2019-05-03T10:15:06.492Z,97573.46
2019-05-03T10:17:45.841Z,97579.30
2019-05-03T10:20:18.763Z,97579.16
2019-05-03T10:22:50.744Z,97575.88
2019-05-03T10:25:24.371Z,97577.00
2019-05-03T10:27:56.626Z,97579.32
2019-05-03T10:30:28.615Z,97572.52
2019-05-03T10:33:06.923Z,97579.52
2019-05-03T10:35:38.891Z,97570.61
2019-05-03T10:38:10.884Z,97575.38
2019-05-03T10:40:45.087Z,97569.70
2019-05-03T10:43:16.761Z,97563.70
2019-05-03T10:45:48.761Z,97568.58
2019-05-03T10:48:20.749Z,97567.05
2019-05-03T10:50:52.781Z,97566.42
2019-05-03T10:53:29.970Z,97570.26
2019-05-03T10:56:23.316Z,97567.97
2019-05-03T10:58:55.541Z,97568.66
2019-05-03T11:01:38.256Z,97565.56
2019-05-03T11:04:10.293Z,97567.94
2019-05-03T11:06:42.276Z,97560.83
2019-05-03T11:09:15.337Z,97560.10
2019-05-03T11:11:47.497Z,97561.52
2019-05-03T11:14:19.478Z,97558.15
2019-05-03T11:16:51.530Z,97558.67
2019-05-03T11:19:25.452Z,97558.20
2019-05-03T11:21:57.524Z,97563.71
2019-05-03T11:24:29.575Z,97558.81
2019-05-03T11:27:04.184Z,97563.31
2019-05-03T11:29:36.182Z,97563.31
2019-05-03T11:32:15.025Z,97562.67
2019-05-03T11:35:06.624Z,97556.42
2019-05-03T11:37:47.222Z,97553.05
2019-05-03T11:40:19.443Z,97550.05
2019-05-03T11:42:55.251Z,97546.56
2019-05-03T11:45:27.037Z,97540.70
2019-05-03T11:47:59.056Z,97546.83
2019-05-03T11:50:31.124Z,97547.34
2019-05-03T11:53:04.954Z,97544.41
2019-05-03T11:55:37.041Z,97547.34
2019-05-03T11:58:20.808Z,97546.75
2019-05-03T12:01:19.704Z,97550.45
2019-05-03T12:03:51.159Z,97541.92
2019-05-03T12:06:24.934Z,97541.67
2019-05-03T12:08:57.032Z,97545.50
2019-05-03T12:11:30.974Z,97540.70
2019-05-03T12:14:12.711Z,97532.11
2019-05-03T12:17:16.554Z,97527.78
2019-05-03T12:19:34.369Z,97528.94
2019-05-03T12:22:07.565Z,97523.79
2019-05-03T12:24:40.334Z,97521.57
2019-05-03T12:27:14.935Z,97523.00
2019-05-03T12:29:46.825Z,97511.41
2019-05-03T12:32:19.022Z,97522.22
2019-05-03T12:34:51.010Z,97512.52
2019-05-03T12:37:24.463Z,97507.88
2019-05-03T12:39:56.528Z,97505.73
2019-05-03T12:42:28.577Z,97509.14
2019-05-03T12:45:00.588Z,97512.47
2019-05-03T12:47:34.593Z,97510.63
2019-05-03T12:50:06.726Z,97511.38
2019-05-03T12:52:49.267Z,97508.80
2019-05-03T12:55:12.684Z,97508.01
2019-05-03T12:57:45.809Z,97497.94
2019-05-03T13:00:35.954Z,97493.72
2019-05-03T13:03:15.219Z,97486.43
2019-05-03T13:05:47.488Z,97483.69
2019-05-03T13:08:38.928Z,97472.22
2019-05-03T13:11:10.900Z,97469.67
2019-05-03T13:13:45.044Z,97461.76
2019-05-03T13:16:19.167Z,97462.45
2019-05-03T13:18:51.202Z,97460.92
2019-05-03T13:21:25.116Z,97454.47
2019-05-03T13:23:57.129Z,97457.44
2019-05-03T13:26:29.135Z,97453.45
2019-05-03T13:29:01.107Z,97453.78
2019-05-03T13:31:34.693Z,97450.19
2019-05-03T13:34:06.843Z,97450.02
2019-05-03T13:36:38.816Z,97453.09
2019-05-03T13:39:14.438Z,97440.08
2019-05-03T13:41:45.507Z,97448.75
2019-05-03T13:44:17.782Z,97438.41
2019-05-03T13:46:49.813Z,97437.27
2019-05-03T13:49:21.834Z,97441.30
2019-05-03T13:51:53.817Z,97438.53
2019-05-03T13:54:25.841Z,97435.95
2019-05-03T13:56:57.815Z,97430.13
2019-05-03T13:59:29.830Z,97432.70
2019-05-03T14:02:12.374Z,97421.83
2019-05-03T14:04:49.135Z,97429.03
2019-05-03T14:07:09.741Z,97421.75
2019-05-03T14:09:41.771Z,97421.50
2019-05-03T14:12:15.452Z,97418.52
2019-05-03T14:14:55.965Z,97413.64
2019-05-03T14:17:28.649Z,97418.77
2019-05-03T14:20:14.639Z,97419.91
2019-05-03T14:22:47.537Z,97421.06
2019-05-03T14:25:19.545Z,97420.06
2019-05-03T14:27:51.497Z,97415.72
2019-05-03T14:30:25.284Z,97412.34
2019-05-03T14:32:57.399Z,97411.05
2019-05-03T14:35:29.415Z,97412.61
2019-05-03T14:38:01.470Z,97412.95
2019-05-03T14:40:33.577Z,97414.38
2019-05-03T14:43:05.629Z,97408.98
2019-05-03T14:45:37.708Z,97404.77
2019-05-03T14:48:09.719Z,97408.69
2019-05-03T14:50:41.756Z,97403.30
2019-05-03T14:53:14.764Z,97404.84
2019-05-03T14:55:52.503Z,97408.09
2019-05-03T14:58:45.669Z,97407.52
2019-05-03T15:01:25.289Z,97402.44
2019-05-03T15:03:57.309Z,97404.03
2019-05-03T15:06:29.345Z,97401.91
2019-05-03T15:09:01.332Z,97401.45
2019-05-03T15:11:34.534Z,97397.27
2019-05-03T15:14:06.668Z,97394.63
2019-05-03T15:16:38.673Z,97394.63
2019-05-03T15:19:10.739Z,97386.97
2019-05-03T15:21:42.763Z,97390.59
2019-05-03T15:24:14.883Z,97393.00
2019-05-03T15:26:46.901Z,97393.70
2019-05-03T15:29:18.965Z,97395.94
2019-05-03T15:31:51.074Z,97389.63
2019-05-03T15:34:23.064Z,97393.56
2019-05-03T15:36:55.072Z,97399.41
2019-05-03T15:39:27.112Z,97404.39
2019-05-03T15:41:59.125Z,97403.19
2019-05-03T15:44:59.602Z,97414.94
2019-05-03T15:47:35.993Z,97414.32
2019-05-03T15:50:08.123Z,97410.03
2019-05-03T15:52:40.164Z,97411.80
2019-05-03T15:55:12.212Z,97410.95
2019-05-03T15:57:44.696Z,97413.22
2019-05-03T16:00:17.730Z,97416.30
2019-05-03T16:02:49.759Z,97412.95
2019-05-03T16:05:21.766Z,97412.02
2019-05-03T16:07:55.323Z,97411.16
2019-05-03T16:10:27.516Z,97407.02
2019-05-03T16:12:59.539Z,97416.56
2019-05-03T16:15:31.542Z,97414.08
2019-05-03T16:18:05.134Z,97420.44
2019-05-03T16:20:39.443Z,97417.64
2019-05-03T16:23:11.317Z,97425.28
2019-05-03T16:25:44.844Z,97421.32
2019-05-03T16:28:35.525Z,97419.20
2019-05-03T16:31:10.271Z,97415.61
2019-05-03T16:33:42.242Z,97414.05
2019-05-03T16:36:14.869Z,97417.73
2019-05-03T16:38:47.350Z,97417.95
2019-05-03T16:41:19.395Z,97414.17
2019-05-03T16:43:51.417Z,97421.35
2019-05-03T16:46:23.484Z,97413.34
2019-05-03T16:48:55.554Z,97424.06
2019-05-03T16:51:27.599Z,97412.16
2019-05-03T16:53:59.639Z,97421.08
2019-05-03T16:56:31.696Z,97427.74
2019-05-03T16:59:05.669Z,97434.41
2019-05-03T17:01:37.655Z,97435.97
2019-05-03T17:04:27.707Z,97436.46
2019-05-03T17:07:06.985Z,97431.47
2019-05-03T17:09:46.477Z,97435.81
2019-05-03T17:12:25.515Z,97437.23
2019-05-03T17:14:57.758Z,97435.05
2019-05-03T17:17:29.777Z,97439.22
2019-05-03T17:20:01.900Z,97440.05
2019-05-03T17:22:34.523Z,97439.94
2019-05-03T17:25:06.759Z,97433.78
2019-05-03T17:27:38.830Z,97438.56
2019-05-03T17:30:10.969Z,97438.41
2019-05-03T17:32:44.557Z,97426.09
2019-05-03T17:35:16.790Z,97423.05
2019-05-03T17:37:48.790Z,97419.80
2019-05-03T17:40:52.354Z,97418.97
2019-05-03T17:43:34.617Z,97424.52
2019-05-03T17:46:07.306Z,97433.45
2019-05-03T17:48:39.307Z,97430.88
2019-05-03T17:51:30.978Z,97439.11
2019-05-03T17:54:14.550Z,97442.45
2019-05-03T17:56:58.851Z,97445.36
2019-05-03T17:59:36.151Z,97448.61
2019-05-03T18:02:25.499Z,97449.33
2019-05-03T18:05:17.136Z,97443.14
2019-05-03T18:08:17.949Z,97454.12
2019-05-03T18:11:11.570Z,97459.77
2019-05-03T18:13:44.674Z,97458.59
2019-05-03T18:16:16.800Z,97455.82
2019-05-03T18:18:48.845Z,97455.21
2019-05-03T18:21:20.861Z,97455.43
2019-05-03T18:23:54.553Z,97454.12
2019-05-03T18:26:26.836Z,97457.92
2019-05-03T18:28:58.960Z,97466.62
2019-05-03T18:31:31.005Z,97456.61
2019-05-03T18:34:05.031Z,97461.20
2019-05-03T18:36:36.928Z,97460.75
2019-05-03T18:39:09.585Z,97460.16
2019-05-03T18:41:41.617Z,97462.52
2019-05-03T18:44:34.590Z,97472.85
2019-05-03T18:47:09.044Z,97472.52
2019-05-03T18:49:41.124Z,97473.13
2019-05-03T18:52:14.936Z,97473.36
2019-05-03T18:54:47.187Z,97477.53
2019-05-03T18:57:19.171Z,97473.97
2019-05-03T18:59:51.189Z,97479.70
2019-05-03T19:02:24.243Z,97483.67
2019-05-03T19:04:56.437Z,97483.28
2019-05-03T19:07:51.528Z,97483.52
2019-05-03T19:10:32.598Z,97490.62
2019-05-03T19:13:12.611Z,97492.69
2019-05-03T19:15:44.725Z,97495.98
2019-05-03T19:18:24.646Z,97490.66
2019-05-03T19:20:56.797Z,97496.03
2019-05-03T19:23:28.842Z,97505.50
2019-05-03T19:26:00.910Z,97509.28
2019-05-03T19:28:35.255Z,97511.94
2019-05-03T19:31:07.106Z,97515.28
2019-05-03T19:33:39.208Z,97520.92
2019-05-03T19:36:11.303Z,97525.59
2019-05-03T19:38:43.349Z,97518.73
2019-05-03T19:41:16.310Z,97527.69
2019-05-03T19:43:48.526Z,97530.28
2019-05-03T19:46:20.586Z,97532.84
2019-05-03T19:48:54.581Z,97532.33
2019-05-03T19:51:26.625Z,97531.87
2019-05-03T19:53:58.629Z,97526.30
2019-05-03T19:56:30.689Z,97517.96
2019-05-03T19:59:06.576Z,97518.90
2019-05-03T20:02:00.869Z,97518.90
2019-05-03T20:04:57.595Z,97524.05
2019-05-03T20:07:34.705Z,97519.86
2019-05-03T20:10:07.269Z,97516.83
2019-05-03T20:12:39.330Z,97512.78
2019-05-03T20:15:11.400Z,97512.78
2019-05-03T20:17:54.689Z,97509.56
2019-05-03T20:20:17.399Z,97516.45
2019-05-03T20:22:49.446Z,97516.45
2019-05-03T20:25:21.468Z,97515.23
2019-05-03T20:27:53.495Z,97519.00
2019-05-03T20:30:25.613Z,97515.33
2019-05-03T20:32:57.639Z,97515.33
2019-05-03T20:35:29.651Z,97515.07
2019-05-03T20:38:01.650Z,97510.99
2019-05-03T20:40:35.097Z,97510.53
2019-05-03T20:43:32.879Z,97510.53
2019-05-03T20:46:20.035Z,97512.83
2019-05-03T20:48:53.349Z,97499.34
2019-05-03T20:51:25.370Z,97499.34
2019-05-03T20:53:57.397Z,97497.13
2019-05-03T20:56:29.402Z,97502.96
2019-05-03T20:59:01.442Z,97494.27
2019-05-03T21:01:34.767Z,97496.11
2019-05-03T21:04:06.926Z,97499.54
2019-05-03T21:06:39.001Z,97500.16
2019-05-03T21:09:11.061Z,97493.46
2019-05-03T21:11:44.891Z,97499.60
2019-05-03T21:14:17.048Z,97492.49
2019-05-03T21:17:07.993Z,97492.19
2019-05-03T21:19:55.181Z,97493.71
2019-05-03T21:22:35.375Z,97494.27
2019-05-03T21:25:12.881Z,97486.20
2019-05-03T21:27:44.992Z,97485.02
2019-05-03T21:30:17.001Z,97487.58
2019-05-03T21:32:49.002Z,97487.73
2019-05-03T21:35:21.039Z,97485.73
2019-05-03T21:37:54.419Z,97482.28
2019-05-03T21:40:26.548Z,97484.58
2019-05-03T21:42:58.524Z,97488.81
2019-05-03T21:45:37.995Z,97486.81
2019-05-03T21:48:14.682Z,97488.96
2019-05-03T21:50:46.767Z,97489.22
2019-05-03T21:53:18.790Z,97490.15
2019-05-03T21:55:50.895Z,97483.14
2019-05-03T21:58:24.551Z,97478.10
2019-05-03T22:01:05.067Z,97478.60
2019-05-03T22:03:37.215Z,97484.30
2019-05-03T22:06:09.235Z,97480.28
2019-05-03T22:08:41.204Z,97478.75
2019-05-03T22:11:14.814Z,97476.44
2019-05-03T22:13:54.231Z,97473.73
2019-05-03T22:16:45.016Z,97478.50
2019-05-03T22:19:19.419Z,97463.52
2019-05-03T22:21:56.794Z,97464.14
2019-05-03T22:24:42.185Z,97470.36
2019-05-03T22:27:18.963Z,97467.81
2019-05-03T22:29:50.952Z,97467.75
2019-05-03T22:32:24.500Z,97461.58
2019-05-03T22:34:56.843Z,97464.53
2019-05-03T22:37:28.842Z,97458.50
2019-05-03T22:40:00.804Z,97458.16
2019-05-03T22:42:34.571Z,97453.53
2019-05-03T22:45:06.672Z,97450.98
2019-05-03T22:47:38.678Z,97450.98
2019-05-03T22:50:10.678Z,97444.92
2019-05-03T22:52:42.850Z,97442.83
2019-05-03T22:55:15.297Z,97438.37
2019-05-03T22:57:47.458Z,97430.88
2019-05-03T23:00:19.523Z,97427.51
2019-05-03T23:02:51.525Z,97428.79
2019-05-03T23:05:23.498Z,97422.25
2019-05-03T23:07:55.499Z,97420.26
2019-05-03T23:10:27.463Z,97419.08
2019-05-03T23:12:59.464Z,97416.74
2019-05-03T23:15:31.454Z,97411.42
2019-05-03T23:18:04.952Z,97406.22
2019-05-03T23:20:47.220Z,97401.52
2019-05-03T23:23:47.870Z,97409.17
2019-05-03T23:26:19.864Z,97403.98
2019-05-03T23:28:51.846Z,97400.09
2019-05-03T23:31:25.185Z,97398.81
2019-05-03T23:33:57.389Z,97395.13
2019-05-03T23:36:33.635Z,97399.05
2019-05-03T23:39:05.105Z,97392.98
2019-05-03T23:41:37.161Z,97391.05
2019-05-03T23:44:09.182Z,97398.66
2019-05-03T23:46:48.098Z,97388.03
2019-05-03T23:49:20.066Z,97389.00
2019-05-03T23:51:55.098Z,97383.55
2019-05-03T23:54:27.179Z,97378.07
2019-05-03T23:56:59.123Z,97370.01
2019-05-03T23:59:31.105Z,97369.14
